sensor_id;sensor_type;location;lat;lon;timestamp;P1;durP1;ratioP1;P2;durP2;ratioP2
651;SDS011;310;48.490;9.200;2022-08-03T00:01:17;15.77;;;9.00;;
651;SDS011;310;48.490;9.200;2022-08-03T00:03:43;18.33;;;9.67;;
651;SDS011;310;48.490;9.200;2022-08-03T00:06:08;25.63;;;8.33;;
651;SDS011;310;48.490;9.200;2022-08-03T00:08:34;13.97;;;8.00;;
651;SDS011;310;48.490;9.200;2022-08-03T00:11:00;27.20;;;10.10;;
651;SDS011;310;48.490;9.200;2022-08-03T00:13:34;12.10;;;7.67;;
651;SDS011;310;48.490;9.200;2022-08-03T00:16:00;14.10;;;8.33;;
651;SDS011;310;48.490;9.200;2022-08-03T00:18:26;11.97;;;8.07;;
651;SDS011;310;48.490;9.200;2022-08-03T00:20:51;16.97;;;10.17;;
651;SDS011;310;48.490;9.200;2022-08-03T00:23:17;14.57;;;8.73;;
651;SDS011;310;48.490;9.200;2022-08-03T00:25:43;14.90;;;7.80;;
651;SDS011;310;48.490;9.200;2022-08-03T00:28:08;15.60;;;8.60;;
651;SDS011;310;48.490;9.200;2022-08-03T00:30:34;13.90;;;7.90;;
651;SDS011;310;48.490;9.200;2022-08-03T00:33:00;10.73;;;7.67;;
651;SDS011;310;48.490;9.200;2022-08-03T00:35:26;11.47;;;7.77;;
651;SDS011;310;48.490;9.200;2022-08-03T00:37:53;13.90;;;7.60;;
651;SDS011;310;48.490;9.200;2022-08-03T00:40:19;13.87;;;8.07;;
651;SDS011;310;48.490;9.200;2022-08-03T00:42:54;14.90;;;8.20;;
651;SDS011;310;48.490;9.200;2022-08-03T00:45:21;13.20;;;8.50;;
651;SDS011;310;48.490;9.200;2022-08-03T00:47:49;15.83;;;8.53;;
651;SDS011;310;48.490;9.200;2022-08-03T00:50:15;12.93;;;8.03;;
651;SDS011;310;48.490;9.200;2022-08-03T00:52:41;12.90;;;7.73;;
651;SDS011;310;48.490;9.200;2022-08-03T00:55:07;15.83;;;8.53;;
651;SDS011;310;48.490;9.200;2022-08-03T00:57:34;15.07;;;9.53;;
651;SDS011;310;48.490;9.200;2022-08-03T01:00:00;14.07;;;9.07;;
651;SDS011;310;48.490;9.200;2022-08-03T01:02:26;18.00;;;8.37;;
651;SDS011;310;48.490;9.200;2022-08-03T01:04:52;13.87;;;9.07;;
651;SDS011;310;48.490;9.200;2022-08-03T01:15:58;26.33;;;12.53;;
651;SDS011;310;48.490;9.200;2022-08-03T01:18:19;30.70;;;14.07;;
651;SDS011;310;48.490;9.200;2022-08-03T01:20:47;23.13;;;10.17;;
651;SDS011;310;48.490;9.200;2022-08-03T01:29:20;25.40;;;13.93;;
651;SDS011;310;48.490;9.200;2022-08-03T01:32:08;28.57;;;12.37;;
651;SDS011;310;48.490;9.200;2022-08-03T01:34:35;16.83;;;10.90;;
651;SDS011;310;48.490;9.200;2022-08-03T01:37:07;21.33;;;10.63;;
651;SDS011;310;48.490;9.200;2022-08-03T01:39:33;23.37;;;11.00;;
651;SDS011;310;48.490;9.200;2022-08-03T01:42:03;24.83;;;10.83;;
651;SDS011;310;48.490;9.200;2022-08-03T01:44:30;22.77;;;9.83;;
651;SDS011;310;48.490;9.200;2022-08-03T01:47:01;16.17;;;9.10;;
651;SDS011;310;48.490;9.200;2022-08-03T01:49:28;16.47;;;8.90;;
651;SDS011;310;48.490;9.200;2022-08-03T01:51:56;15.67;;;8.70;;
651;SDS011;310;48.490;9.200;2022-08-03T01:54:23;16.07;;;7.63;;
651;SDS011;310;48.490;9.200;2022-08-03T01:56:52;17.73;;;8.50;;
651;SDS011;310;48.490;9.200;2022-08-03T01:59:20;16.87;;;8.50;;
651;SDS011;310;48.490;9.200;2022-08-03T02:01:46;18.07;;;9.10;;
651;SDS011;310;48.490;9.200;2022-08-03T02:04:13;17.10;;;8.50;;
651;SDS011;310;48.490;9.200;2022-08-03T02:06:42;18.03;;;8.43;;
651;SDS011;310;48.490;9.200;2022-08-03T02:09:10;16.50;;;8.90;;
651;SDS011;310;48.490;9.200;2022-08-03T02:11:38;21.90;;;10.27;;
651;SDS011;310;48.490;9.200;2022-08-03T02:14:04;15.07;;;9.20;;
651;SDS011;310;48.490;9.200;2022-08-03T02:16:32;17.87;;;8.20;;
651;SDS011;310;48.490;9.200;2022-08-03T02:19:00;18.07;;;9.27;;
651;SDS011;310;48.490;9.200;2022-08-03T02:21:27;18.10;;;9.10;;
651;SDS011;310;48.490;9.200;2022-08-03T02:23:54;23.97;;;11.40;;
651;SDS011;310;48.490;9.200;2022-08-03T02:26:20;21.87;;;10.23;;
651;SDS011;310;48.490;9.200;2022-08-03T02:28:47;29.67;;;9.50;;
651;SDS011;310;48.490;9.200;2022-08-03T02:31:20;23.77;;;9.70;;
651;SDS011;310;48.490;9.200;2022-08-03T02:33:52;20.70;;;9.80;;
651;SDS011;310;48.490;9.200;2022-08-03T02:36:19;36.10;;;10.17;;
651;SDS011;310;48.490;9.200;2022-08-03T02:38:50;21.37;;;10.07;;
651;SDS011;310;48.490;9.200;2022-08-03T02:41:19;20.73;;;9.73;;
651;SDS011;310;48.490;9.200;2022-08-03T02:43:49;16.63;;;9.10;;
651;SDS011;310;48.490;9.200;2022-08-03T02:46:21;25.80;;;10.60;;
651;SDS011;310;48.490;9.200;2022-08-03T02:48:49;19.00;;;9.63;;
651;SDS011;310;48.490;9.200;2022-08-03T02:51:17;18.03;;;8.90;;
651;SDS011;310;48.490;9.200;2022-08-03T02:53:44;17.97;;;8.57;;
651;SDS011;310;48.490;9.200;2022-08-03T02:56:11;16.03;;;9.13;;
651;SDS011;310;48.490;9.200;2022-08-03T02:58:38;22.10;;;8.70;;
651;SDS011;310;48.490;9.200;2022-08-03T03:01:07;21.87;;;9.30;;
651;SDS011;310;48.490;9.200;2022-08-03T03:03:34;13.30;;;8.30;;
651;SDS011;310;48.490;9.200;2022-08-03T03:06:01;29.30;;;9.80;;
651;SDS011;310;48.490;9.200;2022-08-03T03:08:28;17.00;;;8.77;;
651;SDS011;310;48.490;9.200;2022-08-03T03:10:58;19.83;;;9.67;;
651;SDS011;310;48.490;9.200;2022-08-03T03:13:28;22.57;;;10.37;;
651;SDS011;310;48.490;9.200;2022-08-03T03:15:57;25.37;;;12.60;;
651;SDS011;310;48.490;9.200;2022-08-03T03:18:26;29.70;;;12.73;;
651;SDS011;310;48.490;9.200;2022-08-03T03:20:52;33.47;;;14.23;;
651;SDS011;310;48.490;9.200;2022-08-03T03:23:20;36.33;;;13.33;;
651;SDS011;310;48.490;9.200;2022-08-03T03:25:47;27.03;;;13.00;;
651;SDS011;310;48.490;9.200;2022-08-03T03:28:13;26.83;;;13.27;;
651;SDS011;310;48.490;9.200;2022-08-03T03:30:40;27.10;;;13.10;;
651;SDS011;310;48.490;9.200;2022-08-03T03:33:06;19.40;;;11.67;;
651;SDS011;310;48.490;9.200;2022-08-03T03:35:32;21.07;;;11.57;;
651;SDS011;310;48.490;9.200;2022-08-03T03:37:58;30.47;;;12.37;;
651;SDS011;310;48.490;9.200;2022-08-03T03:40:24;26.30;;;12.37;;
651;SDS011;310;48.490;9.200;2022-08-03T03:42:51;24.87;;;12.23;;
651;SDS011;310;48.490;9.200;2022-08-03T03:45:17;31.40;;;13.57;;
651;SDS011;310;48.490;9.200;2022-08-03T03:47:45;29.90;;;11.80;;
651;SDS011;310;48.490;9.200;2022-08-03T03:50:11;33.43;;;12.87;;
651;SDS011;310;48.490;9.200;2022-08-03T03:52:37;45.97;;;12.63;;
651;SDS011;310;48.490;9.200;2022-08-03T03:55:03;25.73;;;10.50;;
651;SDS011;310;48.490;9.200;2022-08-03T03:57:29;29.67;;;12.37;;
651;SDS011;310;48.490;9.200;2022-08-03T03:59:55;20.73;;;11.10;;
651;SDS011;310;48.490;9.200;2022-08-03T04:02:21;20.67;;;11.20;;
651;SDS011;310;48.490;9.200;2022-08-03T04:04:47;24.80;;;11.57;;
651;SDS011;310;48.490;9.200;2022-08-03T04:07:35;25.53;;;11.00;;
651;SDS011;310;48.490;9.200;2022-08-03T04:10:29;23.47;;;11.17;;
651;SDS011;310;48.490;9.200;2022-08-03T04:13:16;21.87;;;11.10;;
651;SDS011;310;48.490;9.200;2022-08-03T04:15:45;19.60;;;10.60;;
651;SDS011;310;48.490;9.200;2022-08-03T04:18:12;19.73;;;10.37;;
651;SDS011;310;48.490;9.200;2022-08-03T04:20:40;21.53;;;11.13;;
651;SDS011;310;48.490;9.200;2022-08-03T04:23:11;24.47;;;11.70;;
651;SDS011;310;48.490;9.200;2022-08-03T04:25:37;19.40;;;11.10;;
651;SDS011;310;48.490;9.200;2022-08-03T04:28:05;17.90;;;10.70;;
651;SDS011;310;48.490;9.200;2022-08-03T04:30:32;20.27;;;10.33;;
651;SDS011;310;48.490;9.200;2022-08-03T04:33:01;27.53;;;11.70;;
651;SDS011;310;48.490;9.200;2022-08-03T04:35:28;17.93;;;10.47;;
651;SDS011;310;48.490;9.200;2022-08-03T04:37:56;25.47;;;10.67;;
651;SDS011;310;48.490;9.200;2022-08-03T04:40:28;23.43;;;11.20;;
651;SDS011;310;48.490;9.200;2022-08-03T04:42:57;18.63;;;10.43;;
651;SDS011;310;48.490;9.200;2022-08-03T04:45:23;21.67;;;10.30;;
651;SDS011;310;48.490;9.200;2022-08-03T04:47:49;19.70;;;9.70;;
651;SDS011;310;48.490;9.200;2022-08-03T04:50:16;21.20;;;9.23;;
651;SDS011;310;48.490;9.200;2022-08-03T04:52:42;18.13;;;8.60;;
651;SDS011;310;48.490;9.200;2022-08-03T04:55:08;21.63;;;8.80;;
651;SDS011;310;48.490;9.200;2022-08-03T04:57:34;18.77;;;8.30;;
651;SDS011;310;48.490;9.200;2022-08-03T05:00:00;28.90;;;11.40;;
651;SDS011;310;48.490;9.200;2022-08-03T05:02:26;19.63;;;10.47;;
651;SDS011;310;48.490;9.200;2022-08-03T05:04:53;27.60;;;11.60;;
651;SDS011;310;48.490;9.200;2022-08-03T05:07:18;24.10;;;10.33;;
651;SDS011;310;48.490;9.200;2022-08-03T05:09:44;20.83;;;10.47;;
651;SDS011;310;48.490;9.200;2022-08-03T05:12:11;25.80;;;11.40;;
651;SDS011;310;48.490;9.200;2022-08-03T05:14:37;21.00;;;10.57;;
651;SDS011;310;48.490;9.200;2022-08-03T05:17:06;21.67;;;12.90;;
651;SDS011;310;48.490;9.200;2022-08-03T05:19:33;26.17;;;12.17;;
651;SDS011;310;48.490;9.200;2022-08-03T05:21:59;37.20;;;12.77;;
651;SDS011;310;48.490;9.200;2022-08-03T05:24:25;24.90;;;12.50;;
651;SDS011;310;48.490;9.200;2022-08-03T05:26:51;23.27;;;10.83;;
651;SDS011;310;48.490;9.200;2022-08-03T05:29:17;22.17;;;11.03;;
651;SDS011;310;48.490;9.200;2022-08-03T05:31:43;22.80;;;10.40;;
651;SDS011;310;48.490;9.200;2022-08-03T05:34:09;27.70;;;11.20;;
651;SDS011;310;48.490;9.200;2022-08-03T05:36:35;32.33;;;13.90;;
651;SDS011;310;48.490;9.200;2022-08-03T05:39:01;34.47;;;12.70;;
651;SDS011;310;48.490;9.200;2022-08-03T05:41:27;24.67;;;13.87;;
651;SDS011;310;48.490;9.200;2022-08-03T05:43:53;27.23;;;13.87;;
651;SDS011;310;48.490;9.200;2022-08-03T05:46:20;20.63;;;12.90;;
651;SDS011;310;48.490;9.200;2022-08-03T05:48:46;28.37;;;13.60;;
651;SDS011;310;48.490;9.200;2022-08-03T05:51:12;25.43;;;12.33;;
651;SDS011;310;48.490;9.200;2022-08-03T05:53:41;20.93;;;10.97;;
651;SDS011;310;48.490;9.200;2022-08-03T05:56:08;25.40;;;10.67;;
651;SDS011;310;48.490;9.200;2022-08-03T05:58:34;24.10;;;12.23;;
651;SDS011;310;48.490;9.200;2022-08-03T06:01:00;27.13;;;12.17;;
651;SDS011;310;48.490;9.200;2022-08-03T06:03:26;27.80;;;13.27;;
651;SDS011;310;48.490;9.200;2022-08-03T06:05:52;32.13;;;12.77;;
651;SDS011;310;48.490;9.200;2022-08-03T06:08:20;22.73;;;11.10;;
651;SDS011;310;48.490;9.200;2022-08-03T06:10:46;26.80;;;12.37;;
651;SDS011;310;48.490;9.200;2022-08-03T06:13:12;24.47;;;11.67;;
651;SDS011;310;48.490;9.200;2022-08-03T06:15:38;19.63;;;12.03;;
651;SDS011;310;48.490;9.200;2022-08-03T06:18:04;29.00;;;11.07;;
651;SDS011;310;48.490;9.200;2022-08-03T06:20:31;28.93;;;11.27;;
651;SDS011;310;48.490;9.200;2022-08-03T06:22:57;19.33;;;9.93;;
651;SDS011;310;48.490;9.200;2022-08-03T06:25:24;21.57;;;9.97;;
651;SDS011;310;48.490;9.200;2022-08-03T06:27:50;17.20;;;9.30;;
651;SDS011;310;48.490;9.200;2022-08-03T06:30:15;19.67;;;9.00;;
651;SDS011;310;48.490;9.200;2022-08-03T06:32:42;17.50;;;8.80;;
651;SDS011;310;48.490;9.200;2022-08-03T06:35:09;22.13;;;8.97;;
651;SDS011;310;48.490;9.200;2022-08-03T06:37:44;19.60;;;9.40;;
651;SDS011;310;48.490;9.200;2022-08-03T06:40:11;21.90;;;8.90;;
651;SDS011;310;48.490;9.200;2022-08-03T06:42:38;19.20;;;8.27;;
651;SDS011;310;48.490;9.200;2022-08-03T06:45:05;15.80;;;8.43;;
651;SDS011;310;48.490;9.200;2022-08-03T06:47:32;25.10;;;8.67;;
651;SDS011;310;48.490;9.200;2022-08-03T06:49:58;25.80;;;9.43;;
651;SDS011;310;48.490;9.200;2022-08-03T06:52:24;22.27;;;8.43;;
651;SDS011;310;48.490;9.200;2022-08-03T06:54:50;23.90;;;9.90;;
651;SDS011;310;48.490;9.200;2022-08-03T06:57:16;20.13;;;8.90;;
651;SDS011;310;48.490;9.200;2022-08-03T06:59:42;20.77;;;8.90;;
651;SDS011;310;48.490;9.200;2022-08-03T07:02:08;19.70;;;8.47;;
651;SDS011;310;48.490;9.200;2022-08-03T07:04:35;15.50;;;7.40;;
651;SDS011;310;48.490;9.200;2022-08-03T07:07:01;17.30;;;8.23;;
651;SDS011;310;48.490;9.200;2022-08-03T07:09:27;16.37;;;8.40;;
651;SDS011;310;48.490;9.200;2022-08-03T07:11:53;23.63;;;9.23;;
651;SDS011;310;48.490;9.200;2022-08-03T07:14:20;24.53;;;9.20;;
651;SDS011;310;48.490;9.200;2022-08-03T07:16:46;18.70;;;8.60;;
651;SDS011;310;48.490;9.200;2022-08-03T07:19:11;22.33;;;9.60;;
651;SDS011;310;48.490;9.200;2022-08-03T07:21:37;11.40;;;9.30;;
651;SDS011;310;48.490;9.200;2022-08-03T07:24:03;19.63;;;8.30;;
651;SDS011;310;48.490;9.200;2022-08-03T07:26:29;11.43;;;9.20;;
651;SDS011;310;48.490;9.200;2022-08-03T07:28:54;11.90;;;8.20;;
651;SDS011;310;48.490;9.200;2022-08-03T07:31:20;10.27;;;8.10;;
651;SDS011;310;48.490;9.200;2022-08-03T07:33:46;12.00;;;8.67;;
651;SDS011;310;48.490;9.200;2022-08-03T07:36:11;12.50;;;9.17;;
651;SDS011;310;48.490;9.200;2022-08-03T07:38:37;13.80;;;9.23;;
651;SDS011;310;48.490;9.200;2022-08-03T07:41:02;10.40;;;7.90;;
651;SDS011;310;48.490;9.200;2022-08-03T07:43:28;27.23;;;8.00;;
651;SDS011;310;48.490;9.200;2022-08-03T07:45:54;22.27;;;9.30;;
651;SDS011;310;48.490;9.200;2022-08-03T07:48:19;11.63;;;8.43;;
651;SDS011;310;48.490;9.200;2022-08-03T07:50:45;14.37;;;8.90;;
651;SDS011;310;48.490;9.200;2022-08-03T07:53:11;11.37;;;8.63;;
651;SDS011;310;48.490;9.200;2022-08-03T07:55:37;9.63;;;7.70;;
651;SDS011;310;48.490;9.200;2022-08-03T07:58:06;16.80;;;7.07;;
651;SDS011;310;48.490;9.200;2022-08-03T08:00:33;10.80;;;7.70;;
651;SDS011;310;48.490;9.200;2022-08-03T08:03:00;15.90;;;8.13;;
651;SDS011;310;48.490;9.200;2022-08-03T08:05:26;13.70;;;6.93;;
651;SDS011;310;48.490;9.200;2022-08-03T08:07:52;14.10;;;7.10;;
651;SDS011;310;48.490;9.200;2022-08-03T08:10:18;8.37;;;6.73;;
651;SDS011;310;48.490;9.200;2022-08-03T08:12:44;6.77;;;6.20;;
651;SDS011;310;48.490;9.200;2022-08-03T08:15:09;10.60;;;6.33;;
651;SDS011;310;48.490;9.200;2022-08-03T08:17:42;8.23;;;6.27;;
651;SDS011;310;48.490;9.200;2022-08-03T08:20:27;7.87;;;6.70;;
651;SDS011;310;48.490;9.200;2022-08-03T08:22:54;8.57;;;6.90;;
651;SDS011;310;48.490;9.200;2022-08-03T08:25:21;9.30;;;6.07;;
651;SDS011;310;48.490;9.200;2022-08-03T08:27:48;8.70;;;6.77;;
651;SDS011;310;48.490;9.200;2022-08-03T08:30:15;12.53;;;6.53;;
651;SDS011;310;48.490;9.200;2022-08-03T08:32:45;8.17;;;6.57;;
651;SDS011;310;48.490;9.200;2022-08-03T08:35:11;8.63;;;6.97;;
651;SDS011;310;48.490;9.200;2022-08-03T08:37:38;8.30;;;6.83;;
651;SDS011;310;48.490;9.200;2022-08-03T08:40:04;10.33;;;6.47;;
651;SDS011;310;48.490;9.200;2022-08-03T08:42:31;9.60;;;6.50;;
651;SDS011;310;48.490;9.200;2022-08-03T08:44:57;11.80;;;6.37;;
651;SDS011;310;48.490;9.200;2022-08-03T08:47:24;6.90;;;5.80;;
651;SDS011;310;48.490;9.200;2022-08-03T08:49:53;5.93;;;5.40;;
651;SDS011;310;48.490;9.200;2022-08-03T08:52:23;10.33;;;5.30;;
651;SDS011;310;48.490;9.200;2022-08-03T08:54:58;13.77;;;5.77;;
651;SDS011;310;48.490;9.200;2022-08-03T08:57:28;7.00;;;5.73;;
651;SDS011;310;48.490;9.200;2022-08-03T08:59:57;6.03;;;5.63;;
651;SDS011;310;48.490;9.200;2022-08-03T09:02:23;8.93;;;5.40;;
651;SDS011;310;48.490;9.200;2022-08-03T09:04:49;12.57;;;5.40;;
651;SDS011;310;48.490;9.200;2022-08-03T09:07:15;6.10;;;5.10;;
651;SDS011;310;48.490;9.200;2022-08-03T09:09:41;5.63;;;4.70;;
651;SDS011;310;48.490;9.200;2022-08-03T09:12:07;7.13;;;5.37;;
651;SDS011;310;48.490;9.200;2022-08-03T09:14:33;16.23;;;5.23;;
651;SDS011;310;48.490;9.200;2022-08-03T09:17:00;7.93;;;4.67;;
651;SDS011;310;48.490;9.200;2022-08-03T09:19:27;18.83;;;5.13;;
651;SDS011;310;48.490;9.200;2022-08-03T09:22:07;6.23;;;4.50;;
651;SDS011;310;48.490;9.200;2022-08-03T09:24:55;6.63;;;4.27;;
651;SDS011;310;48.490;9.200;2022-08-03T09:27:22;6.30;;;4.37;;
651;SDS011;310;48.490;9.200;2022-08-03T09:29:49;9.93;;;4.20;;
651;SDS011;310;48.490;9.200;2022-08-03T09:32:25;16.57;;;4.50;;
651;SDS011;310;48.490;9.200;2022-08-03T09:34:51;13.93;;;4.57;;
651;SDS011;310;48.490;9.200;2022-08-03T09:37:18;6.13;;;4.30;;
651;SDS011;310;48.490;9.200;2022-08-03T09:39:45;6.03;;;4.43;;
651;SDS011;310;48.490;9.200;2022-08-03T09:44:38;4.43;;;4.07;;
651;SDS011;310;48.490;9.200;2022-08-03T09:47:08;5.73;;;4.60;;
651;SDS011;310;48.490;9.200;2022-08-03T09:49:38;7.83;;;4.47;;
651;SDS011;310;48.490;9.200;2022-08-03T09:52:14;7.37;;;4.57;;
651;SDS011;310;48.490;9.200;2022-08-03T09:54:55;4.87;;;4.13;;
651;SDS011;310;48.490;9.200;2022-08-03T09:57:21;10.33;;;3.87;;
651;SDS011;310;48.490;9.200;2022-08-03T09:59:48;4.50;;;4.03;;
651;SDS011;310;48.490;9.200;2022-08-03T10:02:22;5.60;;;4.20;;
651;SDS011;310;48.490;9.200;2022-08-03T10:04:49;6.63;;;4.13;;
651;SDS011;310;48.490;9.200;2022-08-03T10:07:17;4.63;;;4.00;;
651;SDS011;310;48.490;9.200;2022-08-03T10:12:19;4.70;;;3.70;;
651;SDS011;310;48.490;9.200;2022-08-03T10:14:45;5.50;;;3.73;;
651;SDS011;310;48.490;9.200;2022-08-03T10:17:11;5.03;;;3.70;;
651;SDS011;310;48.490;9.200;2022-08-03T10:19:37;6.70;;;3.90;;
651;SDS011;310;48.490;9.200;2022-08-03T10:22:14;3.73;;;3.40;;
651;SDS011;310;48.490;9.200;2022-08-03T10:24:55;5.50;;;3.73;;
651;SDS011;310;48.490;9.200;2022-08-03T10:27:28;8.60;;;3.80;;
651;SDS011;310;48.490;9.200;2022-08-03T10:29:59;5.70;;;3.93;;
651;SDS011;310;48.490;9.200;2022-08-03T10:32:47;5.23;;;3.53;;
651;SDS011;310;48.490;9.200;2022-08-03T10:35:24;4.33;;;4.03;;
651;SDS011;310;48.490;9.200;2022-08-03T10:37:51;7.43;;;3.57;;
651;SDS011;310;48.490;9.200;2022-08-03T10:40:23;6.60;;;3.73;;
651;SDS011;310;48.490;9.200;2022-08-03T10:42:55;8.20;;;3.60;;
651;SDS011;310;48.490;9.200;2022-08-03T10:45:27;4.20;;;3.70;;
651;SDS011;310;48.490;9.200;2022-08-03T10:47:58;6.10;;;3.60;;
651;SDS011;310;48.490;9.200;2022-08-03T10:50:24;4.87;;;3.53;;
651;SDS011;310;48.490;9.200;2022-08-03T10:52:57;4.33;;;4.00;;
651;SDS011;310;48.490;9.200;2022-08-03T11:01:09;7.17;;;3.60;;
651;SDS011;310;48.490;9.200;2022-08-03T11:06:17;4.20;;;3.77;;
651;SDS011;310;48.490;9.200;2022-08-03T11:08:46;4.80;;;3.30;;
651;SDS011;310;48.490;9.200;2022-08-03T11:13:55;4.80;;;3.70;;
651;SDS011;310;48.490;9.200;2022-08-03T11:16:27;5.00;;;3.20;;
651;SDS011;310;48.490;9.200;2022-08-03T11:19:01;9.10;;;3.53;;
651;SDS011;310;48.490;9.200;2022-08-03T11:29:57;3.10;;;2.90;;
651;SDS011;310;48.490;9.200;2022-08-03T11:33:11;8.17;;;3.10;;
651;SDS011;310;48.490;9.200;2022-08-03T11:38:03;5.30;;;3.30;;
651;SDS011;310;48.490;9.200;2022-08-03T11:46:01;4.20;;;2.80;;
651;SDS011;310;48.490;9.200;2022-08-03T11:48:42;5.80;;;3.27;;
651;SDS011;310;48.490;9.200;2022-08-03T11:51:21;3.97;;;3.10;;
651;SDS011;310;48.490;9.200;2022-08-03T11:53:50;9.30;;;3.00;;
651;SDS011;310;48.490;9.200;2022-08-03T11:56:23;3.37;;;3.17;;
651;SDS011;310;48.490;9.200;2022-08-03T11:58:50;3.40;;;3.20;;
651;SDS011;310;48.490;9.200;2022-08-03T12:01:17;4.10;;;3.20;;
651;SDS011;310;48.490;9.200;2022-08-03T12:03:44;3.43;;;3.10;;
651;SDS011;310;48.490;9.200;2022-08-03T12:06:14;6.37;;;3.13;;
651;SDS011;310;48.490;9.200;2022-08-03T12:08:41;7.60;;;3.00;;
651;SDS011;310;48.490;9.200;2022-08-03T12:11:08;3.20;;;3.00;;
651;SDS011;310;48.490;9.200;2022-08-03T12:13:39;5.77;;;3.10;;
651;SDS011;310;48.490;9.200;2022-08-03T12:16:18;5.20;;;3.17;;
651;SDS011;310;48.490;9.200;2022-08-03T12:18:53;6.33;;;3.10;;
651;SDS011;310;48.490;9.200;2022-08-03T12:21:26;3.10;;;2.90;;
651;SDS011;310;48.490;9.200;2022-08-03T12:23:56;3.23;;;2.70;;
651;SDS011;310;48.490;9.200;2022-08-03T12:26:24;6.43;;;2.70;;
651;SDS011;310;48.490;9.200;2022-08-03T12:28:50;7.83;;;2.70;;
651;SDS011;310;48.490;9.200;2022-08-03T12:31:16;4.77;;;2.90;;
651;SDS011;310;48.490;9.200;2022-08-03T12:36:24;3.10;;;2.73;;
651;SDS011;310;48.490;9.200;2022-08-03T12:38:56;3.10;;;2.67;;
651;SDS011;310;48.490;9.200;2022-08-03T12:41:33;3.60;;;2.90;;
651;SDS011;310;48.490;9.200;2022-08-03T12:44:04;2.93;;;2.77;;
651;SDS011;310;48.490;9.200;2022-08-03T12:46:33;4.67;;;3.10;;
651;SDS011;310;48.490;9.200;2022-08-03T12:51:34;4.23;;;2.60;;
651;SDS011;310;48.490;9.200;2022-08-03T12:54:24;3.07;;;2.93;;
651;SDS011;310;48.490;9.200;2022-08-03T12:57:10;4.33;;;3.27;;
651;SDS011;310;48.490;9.200;2022-08-03T12:59:38;3.93;;;2.87;;
651;SDS011;310;48.490;9.200;2022-08-03T13:02:12;2.90;;;2.70;;
651;SDS011;310;48.490;9.200;2022-08-03T13:04:40;4.33;;;2.70;;
651;SDS011;310;48.490;9.200;2022-08-03T13:07:07;7.23;;;3.20;;
651;SDS011;310;48.490;9.200;2022-08-03T13:12:12;5.43;;;3.07;;
651;SDS011;310;48.490;9.200;2022-08-03T13:14:46;5.30;;;3.17;;
651;SDS011;310;48.490;9.200;2022-08-03T13:17:13;6.33;;;3.00;;
651;SDS011;310;48.490;9.200;2022-08-03T13:19:40;6.23;;;3.00;;
651;SDS011;310;48.490;9.200;2022-08-03T13:22:13;4.33;;;2.90;;
651;SDS011;310;48.490;9.200;2022-08-03T13:24:40;7.13;;;3.00;;
651;SDS011;310;48.490;9.200;2022-08-03T13:27:07;8.43;;;3.13;;
651;SDS011;310;48.490;9.200;2022-08-03T13:29:33;3.30;;;3.10;;
651;SDS011;310;48.490;9.200;2022-08-03T13:32:02;3.47;;;2.90;;
651;SDS011;310;48.490;9.200;2022-08-03T13:34:29;4.10;;;3.27;;
651;SDS011;310;48.490;9.200;2022-08-03T13:36:55;3.40;;;3.10;;
651;SDS011;310;48.490;9.200;2022-08-03T13:39:20;3.20;;;3.00;;
651;SDS011;310;48.490;9.200;2022-08-03T13:41:46;4.13;;;3.37;;
651;SDS011;310;48.490;9.200;2022-08-03T13:44:12;3.50;;;2.97;;
651;SDS011;310;48.490;9.200;2022-08-03T13:46:38;4.43;;;3.50;;
651;SDS011;310;48.490;9.200;2022-08-03T13:49:04;5.23;;;3.43;;
651;SDS011;310;48.490;9.200;2022-08-03T13:51:31;4.07;;;3.30;;
651;SDS011;310;48.490;9.200;2022-08-03T13:53:57;7.93;;;3.10;;
651;SDS011;310;48.490;9.200;2022-08-03T13:56:24;9.30;;;3.83;;
651;SDS011;310;48.490;9.200;2022-08-03T13:58:53;4.70;;;3.40;;
651;SDS011;310;48.490;9.200;2022-08-03T14:01:19;5.60;;;3.40;;
651;SDS011;310;48.490;9.200;2022-08-03T14:03:45;5.57;;;3.20;;
651;SDS011;310;48.490;9.200;2022-08-03T14:06:14;3.50;;;3.10;;
651;SDS011;310;48.490;9.200;2022-08-03T14:08:40;3.47;;;3.27;;
651;SDS011;310;48.490;9.200;2022-08-03T14:11:05;5.40;;;3.10;;
651;SDS011;310;48.490;9.200;2022-08-03T14:13:31;3.77;;;3.30;;
651;SDS011;310;48.490;9.200;2022-08-03T14:15:57;3.20;;;3.00;;
651;SDS011;310;48.490;9.200;2022-08-03T14:18:22;4.77;;;2.87;;
651;SDS011;310;48.490;9.200;2022-08-03T14:20:48;4.50;;;3.23;;
651;SDS011;310;48.490;9.200;2022-08-03T14:23:14;7.10;;;3.10;;
651;SDS011;310;48.490;9.200;2022-08-03T14:25:40;5.60;;;3.27;;
651;SDS011;310;48.490;9.200;2022-08-03T14:28:06;5.83;;;3.30;;
651;SDS011;310;48.490;9.200;2022-08-03T14:30:32;3.63;;;3.20;;
651;SDS011;310;48.490;9.200;2022-08-03T14:32:59;3.13;;;2.93;;
651;SDS011;310;48.490;9.200;2022-08-03T14:35:24;3.20;;;3.00;;
651;SDS011;310;48.490;9.200;2022-08-03T14:37:50;5.43;;;2.97;;
651;SDS011;310;48.490;9.200;2022-08-03T14:40:16;3.20;;;2.70;;
651;SDS011;310;48.490;9.200;2022-08-03T14:42:42;3.87;;;3.20;;
651;SDS011;310;48.490;9.200;2022-08-03T14:45:08;5.07;;;3.03;;
651;SDS011;310;48.490;9.200;2022-08-03T14:47:34;3.10;;;2.87;;
651;SDS011;310;48.490;9.200;2022-08-03T14:50:00;3.20;;;3.00;;
651;SDS011;310;48.490;9.200;2022-08-03T14:52:28;3.30;;;2.87;;
651;SDS011;310;48.490;9.200;2022-08-03T14:54:54;3.90;;;2.77;;
651;SDS011;310;48.490;9.200;2022-08-03T14:57:20;6.53;;;2.97;;
651;SDS011;310;48.490;9.200;2022-08-03T14:59:45;3.87;;;2.90;;
651;SDS011;310;48.490;9.200;2022-08-03T15:02:11;3.63;;;3.10;;
651;SDS011;310;48.490;9.200;2022-08-03T15:04:36;4.23;;;2.80;;
651;SDS011;310;48.490;9.200;2022-08-03T15:07:02;4.77;;;2.77;;
651;SDS011;310;48.490;9.200;2022-08-03T15:09:28;4.30;;;3.30;;
651;SDS011;310;48.490;9.200;2022-08-03T15:11:53;3.03;;;2.87;;
651;SDS011;310;48.490;9.200;2022-08-03T15:14:19;7.60;;;3.13;;
651;SDS011;310;48.490;9.200;2022-08-03T15:16:45;6.40;;;2.90;;
651;SDS011;310;48.490;9.200;2022-08-03T15:19:10;16.47;;;5.53;;
651;SDS011;310;48.490;9.200;2022-08-03T15:21:37;13.80;;;5.20;;
651;SDS011;310;48.490;9.200;2022-08-03T15:24:03;13.70;;;5.03;;
651;SDS011;310;48.490;9.200;2022-08-03T15:26:29;14.07;;;4.90;;
651;SDS011;310;48.490;9.200;2022-08-03T15:28:55;14.70;;;4.83;;
651;SDS011;310;48.490;9.200;2022-08-03T15:31:22;11.40;;;4.73;;
651;SDS011;310;48.490;9.200;2022-08-03T15:33:48;9.27;;;3.83;;
651;SDS011;310;48.490;9.200;2022-08-03T15:36:17;9.53;;;4.00;;
651;SDS011;310;48.490;9.200;2022-08-03T15:38:43;12.77;;;4.93;;
651;SDS011;310;48.490;9.200;2022-08-03T15:41:10;7.43;;;4.00;;
651;SDS011;310;48.490;9.200;2022-08-03T15:43:39;12.83;;;4.40;;
651;SDS011;310;48.490;9.200;2022-08-03T15:46:05;17.73;;;4.77;;
651;SDS011;310;48.490;9.200;2022-08-03T15:48:31;13.47;;;4.20;;
651;SDS011;310;48.490;9.200;2022-08-03T15:50:57;9.23;;;5.13;;
651;SDS011;310;48.490;9.200;2022-08-03T15:53:23;11.70;;;4.40;;
651;SDS011;310;48.490;9.200;2022-08-03T15:55:48;5.67;;;3.70;;
651;SDS011;310;48.490;9.200;2022-08-03T15:58:14;10.10;;;4.27;;
651;SDS011;310;48.490;9.200;2022-08-03T16:00:40;8.37;;;4.13;;
651;SDS011;310;48.490;9.200;2022-08-03T16:03:07;9.63;;;3.87;;
651;SDS011;310;48.490;9.200;2022-08-03T16:05:33;8.43;;;4.00;;
651;SDS011;310;48.490;9.200;2022-08-03T16:07:59;8.00;;;3.57;;
651;SDS011;310;48.490;9.200;2022-08-03T16:10:25;12.67;;;4.20;;
651;SDS011;310;48.490;9.200;2022-08-03T16:12:54;18.03;;;3.77;;
651;SDS011;310;48.490;9.200;2022-08-03T16:15:21;11.00;;;4.33;;
651;SDS011;310;48.490;9.200;2022-08-03T16:17:47;9.13;;;4.17;;
651;SDS011;310;48.490;9.200;2022-08-03T16:20:13;11.13;;;4.77;;
651;SDS011;310;48.490;9.200;2022-08-03T16:22:40;15.83;;;5.53;;
651;SDS011;310;48.490;9.200;2022-08-03T16:25:07;8.67;;;3.97;;
651;SDS011;310;48.490;9.200;2022-08-03T16:27:33;6.80;;;3.90;;
651;SDS011;310;48.490;9.200;2022-08-03T16:29:59;7.13;;;3.83;;
651;SDS011;310;48.490;9.200;2022-08-03T16:32:25;10.60;;;4.67;;